sensor_id;sensor_type;location;lat;lon;timestamp;pressure;altitude;pressure_sealevel;temperature;humidity
17785;BME280;9016;53.582;10.062;2023-06-22T00:00:36;101874.97;;;21.87;65.94
17785;BME280;9016;53.582;10.062;2023-06-22T00:03:07;101881.13;;;21.89;66.04
17785;BME280;9016;53.582;10.062;2023-06-22T00:05:35;101873.84;;;21.89;65.31
17785;BME280;9016;53.582;10.062;2023-06-22T00:08:04;101872.25;;;21.87;64.98
17785;BME280;9016;53.582;10.062;2023-06-22T00:10:36;101877.81;;;21.85;65.23
17785;BME280;9016;53.582;10.062;2023-06-22T00:13:04;101872.78;;;21.81;65.57
17785;BME280;9016;53.582;10.062;2023-06-22T00:15:33;101867.91;;;21.75;66.11
17785;BME280;9016;53.582;10.062;2023-06-22T00:18:02;101863.44;;;21.74;66.21
17785;BME280;9016;53.582;10.062;2023-06-22T00:20:32;101860.59;;;21.75;66.24
17785;BME280;9016;53.582;10.062;2023-06-22T00:23:04;101863.59;;;21.72;66.44
17785;BME280;9016;53.582;10.062;2023-06-22T00:25:35;101868.00;;;21.73;66.44
17785;BME280;9016;53.582;10.062;2023-06-22T00:28:04;101864.00;;;21.67;67.09
17785;BME280;9016;53.582;10.062;2023-06-22T00:30:33;101867.56;;;21.68;66.24
17785;BME280;9016;53.582;10.062;2023-06-22T00:33:01;101865.41;;;21.62;66.83
17785;BME280;9016;53.582;10.062;2023-06-22T00:35:31;101876.25;;;21.62;67.15
17785;BME280;9016;53.582;10.062;2023-06-22T00:38:00;101879.97;;;21.61;67.12
17785;BME280;9016;53.582;10.062;2023-06-22T00:40:31;101880.69;;;21.63;66.89
17785;BME280;9016;53.582;10.062;2023-06-22T00:42:59;101880.16;;;21.69;66.98
17785;BME280;9016;53.582;10.062;2023-06-22T00:45:28;101877.88;;;21.74;66.62
17785;BME280;9016;53.582;10.062;2023-06-22T00:47:57;101878.22;;;21.81;66.50
17785;BME280;9016;53.582;10.062;2023-06-22T00:50:28;101878.06;;;21.82;66.56
17785;BME280;9016;53.582;10.062;2023-06-22T00:53:05;101877.25;;;21.82;66.58
17785;BME280;9016;53.582;10.062;2023-06-22T00:55:37;101884.38;;;21.83;67.24
17785;BME280;9016;53.582;10.062;2023-06-22T00:58:09;101882.53;;;21.83;66.29
17785;BME280;9016;53.582;10.062;2023-06-22T01:00:38;101895.22;;;21.83;66.43
17785;BME280;9016;53.582;10.062;2023-06-22T01:03:07;101884.22;;;21.84;66.09
17785;BME280;9016;53.582;10.062;2023-06-22T01:05:38;101891.16;;;21.77;66.61
17785;BME280;9016;53.582;10.062;2023-06-22T01:08:19;101885.97;;;21.85;66.14
17785;BME280;9016;53.582;10.062;2023-06-22T01:10:55;101882.06;;;21.78;67.30
17785;BME280;9016;53.582;10.062;2023-06-22T01:13:29;101885.25;;;21.83;66.86
17785;BME280;9016;53.582;10.062;2023-06-22T01:16:02;101883.41;;;21.84;66.60
17785;BME280;9016;53.582;10.062;2023-06-22T01:18:31;101886.38;;;21.81;66.42
17785;BME280;9016;53.582;10.062;2023-06-22T01:21:04;101892.91;;;21.78;66.31
17785;BME280;9016;53.582;10.062;2023-06-22T01:23:50;101888.47;;;21.77;66.00
17785;BME280;9016;53.582;10.062;2023-06-22T01:26:25;101877.16;;;21.72;66.66
17785;BME280;9016;53.582;10.062;2023-06-22T01:28:59;101878.44;;;21.68;66.79
17785;BME280;9016;53.582;10.062;2023-06-22T01:31:29;101872.69;;;21.61;67.29
17785;BME280;9016;53.582;10.062;2023-06-22T01:34:01;101875.28;;;21.63;67.03
17785;BME280;9016;53.582;10.062;2023-06-22T01:36:32;101876.53;;;21.59;67.39
17785;BME280;9016;53.582;10.062;2023-06-22T01:39:02;101869.66;;;21.55;68.15
17785;BME280;9016;53.582;10.062;2023-06-22T01:41:34;101872.22;;;21.56;67.72
17785;BME280;9016;53.582;10.062;2023-06-22T01:44:05;101861.06;;;21.50;67.62
17785;BME280;9016;53.582;10.062;2023-06-22T01:46:36;101861.16;;;21.39;68.42
17785;BME280;9016;53.582;10.062;2023-06-22T01:49:05;101869.16;;;21.40;68.44
17785;BME280;9016;53.582;10.062;2023-06-22T01:51:34;101870.81;;;21.32;68.70
17785;BME280;9016;53.582;10.062;2023-06-22T01:54:02;101878.69;;;21.35;68.64
17785;BME280;9016;53.582;10.062;2023-06-22T01:56:30;101875.00;;;21.36;68.42
17785;BME280;9016;53.582;10.062;2023-06-22T01:59:08;101865.56;;;21.40;68.21
17785;BME280;9016;53.582;10.062;2023-06-22T02:01:42;101867.97;;;21.33;68.18
17785;BME280;9016;53.582;10.062;2023-06-22T02:04:13;101874.94;;;21.26;69.01
17785;BME280;9016;53.582;10.062;2023-06-22T02:06:47;101870.63;;;21.24;69.21
17785;BME280;9016;53.582;10.062;2023-06-22T02:09:20;101876.91;;;21.24;69.77
17785;BME280;9016;53.582;10.062;2023-06-22T02:11:51;101880.50;;;21.25;69.46
17785;BME280;9016;53.582;10.062;2023-06-22T02:14:24;101879.75;;;21.23;69.45
17785;BME280;9016;53.582;10.062;2023-06-22T02:16:52;101880.16;;;21.18;70.02
17785;BME280;9016;53.582;10.062;2023-06-22T02:19:23;101877.16;;;21.21;69.66
17785;BME280;9016;53.582;10.062;2023-06-22T02:21:51;101875.44;;;21.20;69.56
17785;BME280;9016;53.582;10.062;2023-06-22T02:24:20;101874.59;;;21.20;69.15
17785;BME280;9016;53.582;10.062;2023-06-22T02:26:50;101872.88;;;21.19;69.03
17785;BME280;9016;53.582;10.062;2023-06-22T02:29:18;101869.09;;;21.10;69.68
17785;BME280;9016;53.582;10.062;2023-06-22T02:31:47;101860.13;;;21.10;69.32
17785;BME280;9016;53.582;10.062;2023-06-22T02:34:15;101863.09;;;21.07;69.81
17785;BME280;9016;53.582;10.062;2023-06-22T02:36:45;101857.22;;;21.02;69.81
17785;BME280;9016;53.582;10.062;2023-06-22T02:39:19;101857.97;;;20.93;70.92
17785;BME280;9016;53.582;10.062;2023-06-22T02:41:49;101858.91;;;20.82;70.87
17785;BME280;9016;53.582;10.062;2023-06-22T02:44:17;101862.94;;;20.88;70.39
17785;BME280;9016;53.582;10.062;2023-06-22T02:46:47;101858.34;;;20.88;70.50
17785;BME280;9016;53.582;10.062;2023-06-22T02:49:16;101853.34;;;20.84;70.74
17785;BME280;9016;53.582;10.062;2023-06-22T02:51:48;101864.44;;;20.81;71.17
17785;BME280;9016;53.582;10.062;2023-06-22T02:54:16;101859.28;;;20.78;71.17
17785;BME280;9016;53.582;10.062;2023-06-22T02:56:44;101855.50;;;20.69;71.77
17785;BME280;9016;53.582;10.062;2023-06-22T02:59:12;101855.03;;;20.64;72.22
17785;BME280;9016;53.582;10.062;2023-06-22T03:01:40;101864.28;;;20.61;72.60
17785;BME280;9016;53.582;10.062;2023-06-22T03:04:09;101871.41;;;20.62;72.03
17785;BME280;9016;53.582;10.062;2023-06-22T03:06:37;101869.09;;;20.58;72.10
17785;BME280;9016;53.582;10.062;2023-06-22T03:09:07;101865.19;;;20.51;72.90
17785;BME280;9016;53.582;10.062;2023-06-22T03:11:35;101863.13;;;20.43;73.22
17785;BME280;9016;53.582;10.062;2023-06-22T03:14:04;101865.69;;;20.45;73.18
17785;BME280;9016;53.582;10.062;2023-06-22T03:16:31;101870.72;;;20.49;72.81
17785;BME280;9016;53.582;10.062;2023-06-22T03:19:00;101873.31;;;20.51;72.74
17785;BME280;9016;53.582;10.062;2023-06-22T03:21:30;101884.00;;;20.52;72.74
17785;BME280;9016;53.582;10.062;2023-06-22T03:23:59;101874.69;;;20.45;72.86
17785;BME280;9016;53.582;10.062;2023-06-22T03:26:27;101872.34;;;20.41;73.30
17785;BME280;9016;53.582;10.062;2023-06-22T03:28:56;101873.44;;;20.38;73.49
17785;BME280;9016;53.582;10.062;2023-06-22T03:31:24;101877.16;;;20.37;73.89
17785;BME280;9016;53.582;10.062;2023-06-22T03:33:52;101887.25;;;20.35;73.67
17785;BME280;9016;53.582;10.062;2023-06-22T03:36:21;101881.25;;;20.32;73.91
17785;BME280;9016;53.582;10.062;2023-06-22T03:38:51;101888.00;;;20.37;73.56
17785;BME280;9016;53.582;10.062;2023-06-22T03:41:19;101898.44;;;20.42;73.66
17785;BME280;9016;53.582;10.062;2023-06-22T03:43:47;101901.91;;;20.33;73.92
17785;BME280;9016;53.582;10.062;2023-06-22T03:46:15;101897.72;;;20.40;73.73
17785;BME280;9016;53.582;10.062;2023-06-22T03:48:43;101908.03;;;20.46;72.92
17785;BME280;9016;53.582;10.062;2023-06-22T03:51:14;101908.38;;;20.52;72.59
17785;BME280;9016;53.582;10.062;2023-06-22T03:53:42;101902.56;;;20.57;72.27
17785;BME280;9016;53.582;10.062;2023-06-22T03:56:12;101896.06;;;20.59;72.04
17785;BME280;9016;53.582;10.062;2023-06-22T03:58:46;101903.53;;;20.67;71.43
17785;BME280;9016;53.582;10.062;2023-06-22T04:01:14;101906.72;;;20.72;71.63
17785;BME280;9016;53.582;10.062;2023-06-22T04:03:43;101904.91;;;20.61;71.00
17785;BME280;9016;53.582;10.062;2023-06-22T04:06:11;101905.38;;;20.66;71.96
17785;BME280;9016;53.582;10.062;2023-06-22T04:08:41;101908.81;;;20.68;71.12
17785;BME280;9016;53.582;10.062;2023-06-22T04:11:09;101914.75;;;20.62;70.95
17785;BME280;9016;53.582;10.062;2023-06-22T04:13:39;101913.00;;;20.73;70.63
17785;BME280;9016;53.582;10.062;2023-06-22T04:16:07;101916.44;;;20.75;70.48
17785;BME280;9016;53.582;10.062;2023-06-22T04:18:36;101917.19;;;20.77;70.16
17785;BME280;9016;53.582;10.062;2023-06-22T04:21:04;101920.91;;;20.64;69.96
17785;BME280;9016;53.582;10.062;2023-06-22T04:23:32;101919.66;;;20.68;69.89
17785;BME280;9016;53.582;10.062;2023-06-22T04:26:00;101925.81;;;20.70;70.15
17785;BME280;9016;53.582;10.062;2023-06-22T04:28:28;101922.47;;;20.78;69.54
17785;BME280;9016;53.582;10.062;2023-06-22T04:31:00;101924.91;;;20.81;68.99
17785;BME280;9016;53.582;10.062;2023-06-22T04:33:29;101931.88;;;20.95;68.97
17785;BME280;9016;53.582;10.062;2023-06-22T04:35:57;101922.72;;;21.07;68.14
17785;BME280;9016;53.582;10.062;2023-06-22T04:38:27;101921.88;;;21.06;68.45
17785;BME280;9016;53.582;10.062;2023-06-22T04:40:56;101921.59;;;21.09;68.68
17785;BME280;9016;53.582;10.062;2023-06-22T04:43:24;101925.31;;;21.29;68.90
17785;BME280;9016;53.582;10.062;2023-06-22T04:45:52;101933.28;;;21.51;68.14
17785;BME280;9016;53.582;10.062;2023-06-22T04:48:21;101932.91;;;21.55;67.67
17785;BME280;9016;53.582;10.062;2023-06-22T04:50:49;101931.44;;;21.51;67.70
17785;BME280;9016;53.582;10.062;2023-06-22T04:53:17;101934.22;;;21.61;66.78
17785;BME280;9016;53.582;10.062;2023-06-22T04:55:45;101921.09;;;21.66;66.87
17785;BME280;9016;53.582;10.062;2023-06-22T04:58:15;101926.09;;;21.82;66.32
17785;BME280;9016;53.582;10.062;2023-06-22T05:00:46;101920.38;;;21.85;65.63
17785;BME280;9016;53.582;10.062;2023-06-22T05:03:17;101919.66;;;21.83;65.14
17785;BME280;9016;53.582;10.062;2023-06-22T05:05:48;101927.56;;;21.95;64.66
17785;BME280;9016;53.582;10.062;2023-06-22T05:08:16;101922.03;;;22.06;64.15
17785;BME280;9016;53.582;10.062;2023-06-22T05:10:44;101930.66;;;22.11;64.51
17785;BME280;9016;53.582;10.062;2023-06-22T05:13:31;101929.50;;;22.14;64.14
17785;BME280;9016;53.582;10.062;2023-06-22T05:15:59;101922.25;;;22.24;63.43
17785;BME280;9016;53.582;10.062;2023-06-22T05:18:29;101928.66;;;22.23;62.97
17785;BME280;9016;53.582;10.062;2023-06-22T05:21:00;101929.09;;;22.18;62.56
17785;BME280;9016;53.582;10.062;2023-06-22T05:23:28;101932.38;;;22.22;60.64
17785;BME280;9016;53.582;10.062;2023-06-22T05:25:56;101926.56;;;22.36;59.72
17785;BME280;9016;53.582;10.062;2023-06-22T05:28:25;101932.09;;;22.65;59.41
17785;BME280;9016;53.582;10.062;2023-06-22T05:30:53;101932.09;;;22.65;58.01
17785;BME280;9016;53.582;10.062;2023-06-22T05:33:22;101932.53;;;22.70;58.72
17785;BME280;9016;53.582;10.062;2023-06-22T05:35:50;101936.66;;;23.02;58.04
17785;BME280;9016;53.582;10.062;2023-06-22T05:38:19;101927.53;;;23.13;57.52
17785;BME280;9016;53.582;10.062;2023-06-22T05:40:47;101937.25;;;23.25;56.67
17785;BME280;9016;53.582;10.062;2023-06-22T05:43:15;101936.09;;;23.08;56.03
17785;BME280;9016;53.582;10.062;2023-06-22T05:45:43;101936.25;;;22.88;56.58
17785;BME280;9016;53.582;10.062;2023-06-22T05:48:11;101941.53;;;23.08;56.49
17785;BME280;9016;53.582;10.062;2023-06-22T05:50:39;101943.41;;;23.08;56.39
17785;BME280;9016;53.582;10.062;2023-06-22T05:53:07;101945.41;;;23.25;56.06
17785;BME280;9016;53.582;10.062;2023-06-22T05:55:37;101939.81;;;23.17;53.35
17785;BME280;9016;53.582;10.062;2023-06-22T05:58:05;101928.94;;;23.36;53.81
17785;BME280;9016;53.582;10.062;2023-06-22T06:00:33;101931.66;;;23.45;53.20
17785;BME280;9016;53.582;10.062;2023-06-22T06:03:01;101930.03;;;23.62;53.36
17785;BME280;9016;53.582;10.062;2023-06-22T06:05:31;101930.03;;;23.62;52.58
17785;BME280;9016;53.582;10.062;2023-06-22T06:08:00;101926.81;;;23.86;52.03
17785;BME280;9016;53.582;10.062;2023-06-22T06:10:30;101923.84;;;23.79;52.35
17785;BME280;9016;53.582;10.062;2023-06-22T06:13:01;101921.63;;;23.92;52.25
17785;BME280;9016;53.582;10.062;2023-06-22T06:15:31;101925.09;;;24.21;52.21
17785;BME280;9016;53.582;10.062;2023-06-22T06:17:59;101920.00;;;24.36;51.29
17785;BME280;9016;53.582;10.062;2023-06-22T06:20:28;101921.13;;;24.61;51.32
17785;BME280;9016;53.582;10.062;2023-06-22T06:22:57;101924.63;;;25.23;50.37
17785;BME280;9016;53.582;10.062;2023-06-22T06:25:25;101924.41;;;26.11;46.80
17785;BME280;9016;53.582;10.062;2023-06-22T06:27:53;101911.66;;;27.18;44.51
17785;BME280;9016;53.582;10.062;2023-06-22T06:30:23;101922.31;;;28.08;43.23
17785;BME280;9016;53.582;10.062;2023-06-22T06:32:51;101915.97;;;28.54;41.23
17785;BME280;9016;53.582;10.062;2023-06-22T06:35:19;101913.84;;;29.09;40.48
17785;BME280;9016;53.582;10.062;2023-06-22T06:37:49;101917.50;;;28.49;41.07
17785;BME280;9016;53.582;10.062;2023-06-22T06:40:18;101919.28;;;27.95;41.93
17785;BME280;9016;53.582;10.062;2023-06-22T06:42:47;101917.81;;;27.60;43.58
17785;BME280;9016;53.582;10.062;2023-06-22T06:45:17;101914.19;;;27.76;43.16
17785;BME280;9016;53.582;10.062;2023-06-22T06:47:47;101914.16;;;27.84;42.75
17785;BME280;9016;53.582;10.062;2023-06-22T06:50:15;101916.06;;;28.91;42.00
17785;BME280;9016;53.582;10.062;2023-06-22T06:52:44;101904.44;;;29.12;40.02
17785;BME280;9016;53.582;10.062;2023-06-22T06:55:12;101903.56;;;29.11;40.03
17785;BME280;9016;53.582;10.062;2023-06-22T06:57:42;101901.47;;;29.36;39.64
17785;BME280;9016;53.582;10.062;2023-06-22T07:00:11;101899.91;;;29.19;39.75
17785;BME280;9016;53.582;10.062;2023-06-22T07:02:41;101899.56;;;28.69;40.55
17785;BME280;9016;53.582;10.062;2023-06-22T07:05:11;101896.22;;;28.51;41.11
17785;BME280;9016;53.582;10.062;2023-06-22T07:07:40;101897.41;;;27.79;42.72
17785;BME280;9016;53.582;10.062;2023-06-22T07:10:10;101901.13;;;27.86;42.52
17785;BME280;9016;53.582;10.062;2023-06-22T07:12:38;101905.31;;;28.51;41.55
17785;BME280;9016;53.582;10.062;2023-06-22T07:15:07;101901.34;;;29.29;40.04
17785;BME280;9016;53.582;10.062;2023-06-22T07:17:36;101900.19;;;30.19;38.57
17785;BME280;9016;53.582;10.062;2023-06-22T07:20:07;101895.94;;;30.17;37.79
17785;BME280;9016;53.582;10.062;2023-06-22T07:22:39;101898.38;;;31.19;36.82
17785;BME280;9016;53.582;10.062;2023-06-22T07:25:07;101896.59;;;30.55;37.64
17785;BME280;9016;53.582;10.062;2023-06-22T07:27:37;101904.94;;;30.11;37.72
17785;BME280;9016;53.582;10.062;2023-06-22T07:30:07;101900.50;;;29.29;39.50
17785;BME280;9016;53.582;10.062;2023-06-22T07:32:35;101909.69;;;28.91;40.29
17785;BME280;9016;53.582;10.062;2023-06-22T07:35:04;101908.47;;;28.40;40.83
17785;BME280;9016;53.582;10.062;2023-06-22T07:37:33;101909.16;;;28.03;41.51
17785;BME280;9016;53.582;10.062;2023-06-22T07:40:04;101906.38;;;28.81;40.08
17785;BME280;9016;53.582;10.062;2023-06-22T07:42:33;101896.19;;;30.22;39.03
17785;BME280;9016;53.582;10.062;2023-06-22T07:45:03;101898.31;;;31.12;36.51
17785;BME280;9016;53.582;10.062;2023-06-22T07:47:31;101903.31;;;32.13;35.06
17785;BME280;9016;53.582;10.062;2023-06-22T07:50:03;101898.22;;;31.27;34.52
17785;BME280;9016;53.582;10.062;2023-06-22T07:52:33;101907.09;;;30.66;37.02
17785;BME280;9016;53.582;10.062;2023-06-22T07:55:03;101906.00;;;31.17;36.28
17785;BME280;9016;53.582;10.062;2023-06-22T07:57:31;101904.91;;;32.42;34.73
17785;BME280;9016;53.582;10.062;2023-06-22T08:00:02;101912.75;;;31.91;34.34
17785;BME280;9016;53.582;10.062;2023-06-22T08:02:36;101898.91;;;31.08;35.63
17785;BME280;9016;53.582;10.062;2023-06-22T08:05:05;101903.78;;;30.20;37.08
17785;BME280;9016;53.582;10.062;2023-06-22T08:07:46;101906.03;;;29.58;38.85
17785;BME280;9016;53.582;10.062;2023-06-22T08:10:16;101898.72;;;29.88;38.63
17785;BME280;9016;53.582;10.062;2023-06-22T08:12:44;101903.53;;;29.34;39.79
17785;BME280;9016;53.582;10.062;2023-06-22T08:15:12;101898.34;;;30.56;38.36
17785;BME280;9016;53.582;10.062;2023-06-22T08:17:40;101899.53;;;29.88;37.71
17785;BME280;9016;53.582;10.062;2023-06-22T08:20:10;101903.34;;;29.73;36.95
17785;BME280;9016;53.582;10.062;2023-06-22T08:22:39;101898.81;;;30.80;35.94
17785;BME280;9016;53.582;10.062;2023-06-22T08:25:08;101902.47;;;32.73;32.17
17785;BME280;9016;53.582;10.062;2023-06-22T08:27:37;101904.94;;;32.01;32.85
17785;BME280;9016;53.582;10.062;2023-06-22T08:30:07;101893.88;;;33.35;31.49
17785;BME280;9016;53.582;10.062;2023-06-22T08:32:35;101883.84;;;34.37;30.82
17785;BME280;9016;53.582;10.062;2023-06-22T08:35:03;101889.41;;;34.30;30.26
17785;BME280;9016;53.582;10.062;2023-06-22T08:37:32;101883.78;;;34.87;29.79
17785;BME280;9016;53.582;10.062;2023-06-22T08:40:04;101882.88;;;35.00;28.70
17785;BME280;9016;53.582;10.062;2023-06-22T08:42:35;101891.78;;;34.71;28.83
17785;BME280;9016;53.582;10.062;2023-06-22T08:45:05;101893.53;;;35.52;27.84
17785;BME280;9016;53.582;10.062;2023-06-22T08:47:36;101899.09;;;36.61;26.42
17785;BME280;9016;53.582;10.062;2023-06-22T08:50:05;101884.03;;;36.68;26.08
17785;BME280;9016;53.582;10.062;2023-06-22T08:52:35;101885.66;;;36.28;26.46
17785;BME280;9016;53.582;10.062;2023-06-22T08:55:07;101874.34;;;36.59;25.87
17785;BME280;9016;53.582;10.062;2023-06-22T08:57:35;101868.53;;;36.61;26.61
17785;BME280;9016;53.582;10.062;2023-06-22T09:00:08;101868.19;;;36.87;25.43
17785;BME280;9016;53.582;10.062;2023-06-22T09:02:44;101871.66;;;35.62;26.86
17785;BME280;9016;53.582;10.062;2023-06-22T09:05:13;101866.00;;;35.02;27.85
17785;BME280;9016;53.582;10.062;2023-06-22T09:07:41;101863.53;;;35.43;27.41
17785;BME280;9016;53.582;10.062;2023-06-22T09:10:10;101863.84;;;36.61;26.32
17785;BME280;9016;53.582;10.062;2023-06-22T09:12:39;101856.41;;;36.44;26.59
17785;BME280;9016;53.582;10.062;2023-06-22T09:15:09;101864.53;;;36.57;25.85
17785;BME280;9016;53.582;10.062;2023-06-22T09:17:43;101863.25;;;36.23;26.43
17785;BME280;9016;53.582;10.062;2023-06-22T09:20:13;101863.41;;;35.74;26.66
17785;BME280;9016;53.582;10.062;2023-06-22T09:22:41;101842.34;;;36.68;26.45
17785;BME280;9016;53.582;10.062;2023-06-22T09:25:09;101853.06;;;36.35;26.32
17785;BME280;9016;53.582;10.062;2023-06-22T09:27:37;101833.78;;;36.70;26.32
17785;BME280;9016;53.582;10.062;2023-06-22T09:30:06;101839.09;;;37.82;25.60
17785;BME280;9016;53.582;10.062;2023-06-22T09:32:36;101840.78;;;37.02;25.66
17785;BME280;9016;53.582;10.062;2023-06-22T09:35:05;101837.00;;;37.08;26.15
17785;BME280;9016;53.582;10.062;2023-06-22T09:37:35;101842.22;;;37.16;25.64
17785;BME280;9016;53.582;10.062;2023-06-22T09:40:05;101832.09;;;36.69;25.69
17785;BME280;9016;53.582;10.062;2023-06-22T09:42:41;101832.38;;;36.49;26.37
17785;BME280;9016;53.582;10.062;2023-06-22T09:45:09;101828.53;;;36.03;27.15
17785;BME280;9016;53.582;10.062;2023-06-22T09:47:39;101821.16;;;35.97;27.20
17785;BME280;9016;53.582;10.062;2023-06-22T09:50:07;101821.34;;;36.13;27.44
17785;BME280;9016;53.582;10.062;2023-06-22T09:52:35;101824.16;;;35.10;28.40
17785;BME280;9016;53.582;10.062;2023-06-22T09:55:07;101828.28;;;34.32;29.30
17785;BME280;9016;53.582;10.062;2023-06-22T09:57:35;101823.09;;;34.55;29.33
17785;BME280;9016;53.582;10.062;2023-06-22T10:00:05;101814.19;;;34.40;29.90
17785;BME280;9016;53.582;10.062;2023-06-22T10:02:39;101813.72;;;34.12;29.75
17785;BME280;9016;53.582;10.062;2023-06-22T10:05:08;101815.50;;;34.00;30.20
17785;BME280;9016;53.582;10.062;2023-06-22T10:07:37;101813.06;;;33.59;30.66
17785;BME280;9016;53.582;10.062;2023-06-22T10:10:09;101810.53;;;32.98;31.56
17785;BME280;9016;53.582;10.062;2023-06-22T10:12:41;101810.53;;;33.12;31.58
17785;BME280;9016;53.582;10.062;2023-06-22T10:15:10;101805.00;;;33.31;31.47
17785;BME280;9016;53.582;10.062;2023-06-22T10:17:40;101811.84;;;32.16;32.85
17785;BME280;9016;53.582;10.062;2023-06-22T10:20:09;101800.72;;;32.63;33.00
17785;BME280;9016;53.582;10.062;2023-06-22T10:22:39;101808.19;;;33.28;31.61
17785;BME280;9016;53.582;10.062;2023-06-22T10:25:08;101807.31;;;32.43;32.67
17785;BME280;9016;53.582;10.062;2023-06-22T10:27:36;101815.53;;;32.30;33.26
17785;BME280;9016;53.582;10.062;2023-06-22T10:30:07;101801.84;;;32.02;33.91
17785;BME280;9016;53.582;10.062;2023-06-22T10:32:38;101807.44;;;31.74;34.32
17785;BME280;9016;53.582;10.062;2023-06-22T10:35:08;101788.78;;;32.37;33.37
17785;BME280;9016;53.582;10.062;2023-06-22T10:37:37;101797.63;;;32.13;33.90
17785;BME280;9016;53.582;10.062;2023-06-22T10:40:06;101789.72;;;31.96;34.45
17785;BME280;9016;53.582;10.062;2023-06-22T10:42:35;101789.91;;;31.95;34.32
17785;BME280;9016;53.582;10.062;2023-06-22T10:45:03;101783.28;;;32.43;33.26
17785;BME280;9016;53.582;10.062;2023-06-22T10:47:31;101771.88;;;32.72;33.92
17785;BME280;9016;53.582;10.062;2023-06-22T10:50:00;101770.13;;;33.37;32.76
17785;BME280;9016;53.582;10.062;2023-06-22T10:52:32;101771.22;;;33.10;32.81
17785;BME280;9016;53.582;10.062;2023-06-22T10:55:01;101779.50;;;32.57;33.27
17785;BME280;9016;53.582;10.062;2023-06-22T10:57:29;101770.59;;;31.95;34.63
17785;BME280;9016;53.582;10.062;2023-06-22T10:59:58;101765.81;;;32.23;34.67
17785;BME280;9016;53.582;10.062;2023-06-22T11:02:26;101758.28;;;31.16;35.99
17785;BME280;9016;53.582;10.062;2023-06-22T11:04:55;101765.28;;;31.46;36.00
17785;BME280;9016;53.582;10.062;2023-06-22T11:07:23;101766.47;;;31.71;35.23
17785;BME280;9016;53.582;10.062;2023-06-22T11:09:52;101764.19;;;31.81;35.40
17785;BME280;9016;53.582;10.062;2023-06-22T11:12:21;101760.88;;;31.52;35.32
17785;BME280;9016;53.582;10.062;2023-06-22T11:14:49;101748.13;;;31.51;35.50
17785;BME280;9016;53.582;10.062;2023-06-22T11:17:18;101757.66;;;31.48;35.96
17785;BME280;9016;53.582;10.062;2023-06-22T11:19:46;101751.94;;;31.15;36.42
17785;BME280;9016;53.582;10.062;2023-06-22T11:22:14;101747.72;;;31.19;36.73
17785;BME280;9016;53.582;10.062;2023-06-22T11:24:43;101751.31;;;31.48;36.30
17785;BME280;9016;53.582;10.062;2023-06-22T11:27:12;101743.28;;;31.25;36.34
17785;BME280;9016;53.582;10.062;2023-06-22T11:29:40;101736.88;;;31.46;35.94
17785;BME280;9016;53.582;10.062;2023-06-22T11:32:08;101742.81;;;31.15;36.61
17785;BME280;9016;53.582;10.062;2023-06-22T11:34:42;101746.25;;;31.24;36.94
17785;BME280;9016;53.582;10.062;2023-06-22T11:37:10;101739.88;;;31.23;36.71
17785;BME280;9016;53.582;10.062;2023-06-22T11:39:38;101734.03;;;30.98;36.90
17785;BME280;9016;53.582;10.062;2023-06-22T11:42:15;101736.53;;;30.93;37.51
17785;BME280;9016;53.582;10.062;2023-06-22T11:44:43;101729.28;;;30.86;37.68
17785;BME280;9016;53.582;10.062;2023-06-22T11:47:11;101738.13;;;30.60;38.15
17785;BME280;9016;53.582;10.062;2023-06-22T11:49:39;101735.31;;;30.54;38.28
17785;BME280;9016;53.582;10.062;2023-06-22T11:52:07;101731.38;;;30.63;38.04
17785;BME280;9016;53.582;10.062;2023-06-22T11:54:35;101730.06;;;30.59;38.76
17785;BME280;9016;53.582;10.062;2023-06-22T11:57:04;101733.47;;;30.61;38.15
17785;BME280;9016;53.582;10.062;2023-06-22T11:59:33;101733.09;;;30.64;37.54
17785;BME280;9016;53.582;10.062;2023-06-22T12:02:01;101723.56;;;30.66;37.72
17785;BME280;9016;53.582;10.062;2023-06-22T12:04:30;101713.22;;;30.68;37.50
17785;BME280;9016;53.582;10.062;2023-06-22T12:06:58;101718.84;;;30.81;37.35
17785;BME280;9016;53.582;10.062;2023-06-22T12:09:27;101707.06;;;30.87;37.29
17785;BME280;9016;53.582;10.062;2023-06-22T12:11:55;101705.81;;;30.69;37.11
17785;BME280;9016;53.582;10.062;2023-06-22T12:14:23;101703.84;;;30.84;37.48
17785;BME280;9016;53.582;10.062;2023-06-22T12:16:53;101700.91;;;30.85;37.51
17785;BME280;9016;53.582;10.062;2023-06-22T12:19:21;101696.41;;;30.84;38.00
17785;BME280;9016;53.582;10.062;2023-06-22T12:21:49;101688.13;;;30.57;38.40
17785;BME280;9016;53.582;10.062;2023-06-22T12:24:17;101692.16;;;30.33;38.48
17785;BME280;9016;53.582;10.062;2023-06-22T12:26:45;101689.16;;;30.28;38.65
17785;BME280;9016;53.582;10.062;2023-06-22T12:29:13;101680.19;;;30.41;38.94
17785;BME280;9016;53.582;10.062;2023-06-22T12:31:41;101681.34;;;30.53;38.38
17785;BME280;9016;53.582;10.062;2023-06-22T12:34:10;101678.63;;;30.59;38.56
17785;BME280;9016;53.582;10.062;2023-06-22T12:36:38;101675.44;;;30.56;38.54
17785;BME280;9016;53.582;10.062;2023-06-22T12:39:08;101674.63;;;30.34;39.15
17785;BME280;9016;53.582;10.062;2023-06-22T12:41:35;101670.06;;;30.48;38.80
17785;BME280;9016;53.582;10.062;2023-06-22T12:44:04;101670.63;;;30.64;38.70
17785;BME280;9016;53.582;10.062;2023-06-22T12:46:32;101666.13;;;30.57;38.79
17785;BME280;9016;53.582;10.062;2023-06-22T12:49:04;101666.44;;;30.68;39.29
17785;BME280;9016;53.582;10.062;2023-06-22T12:51:39;101663.75;;;30.75;38.86
17785;BME280;9016;53.582;10.062;2023-06-22T12:54:09;101663.28;;;30.99;38.73
17785;BME280;9016;53.582;10.062;2023-06-22T12:56:37;101657.41;;;30.53;39.77
17785;BME280;9016;53.582;10.062;2023-06-22T12:59:05;101652.91;;;30.73;38.99
17785;BME280;9016;53.582;10.062;2023-06-22T13:01:34;101658.69;;;30.78;38.82